DCA weather

Ronald Reagan Washington National Airport
Washington, District of Columbia, United States

Public forecast

Using degrees Fahrenheit for public forecast. Weather courtesy of forecast.io.

METAR (pilot weather report)

Retrieved 2017/05/25 00:22 UTC (36 minutes ago):

KDCA 250022Z 10013G19KT 10SM SCT022 SCT028 OVC047 18/14 A2972 RMK AO2 T01780139

TAF (pilot weather forecast)

Forecast is more than 12 hours old.

Retrieved 2017/05/24 00:27 UTC (1 day ago):

TAF KDCA 242325Z 2500/2524 10007KT P6SM OVC015 FM250300 09011G20KT P6SM -RA OVC011 FM250400 07013G22KT 6SM -RA BR OVC008 FM250700 07012G22KT 4SM RA BR OVC005 FM251200 12006KT P6SM OVC008 FM251600 19009KT P6SM -SHRA BKN045